Hilo International Airport Hilo US
ICAO: PHTO
IATA: ITO
Category: Medium
Scheduled Services:

Elevation: 38 ft
TransAlt. 18000 ft.

Airport Communications:
APP/DEP:119.7
ATIS:126.4
CTAF:118.1
GND:121.9
HONOLULU RDO:122.6
TWR:118.1

PHTO Zoom In..

Runways:

(A) RW 03 length 5600 ft width 150 ft
---- / hdg 30

(B) RW 08 length 9800 ft width 150 ft
---- / hdg 79

(C) RW 21 length 5600 ft width 150 ft
---- / hdg 210

(D) RW 26 length 9800 ft width 150 ft
ILS 110.70 / hdg 259

Location; PHTO
Day. 14 / Time. 13.53 Zulu
* Altimeter: 29.97
* Temperature: 24° c. 75.2°f.
* Wind from: 310° Speed 07 kn.
Dewpoint: 21° c.
Visibility: 10 Statute Miles.
Clouds: Broken 5000 ft.

PHTO 141353Z AUTO 31007KT 10SM BKN050 24/21 A2997 RMK AO2 SLP148 T02440211 TSNO


Wind From 310°
Speed 07 kn.

 
 
jpsmedia.com for Web Design worldairports.se 2018   terms of use